createdAt,value
2023-06-16T00:01:32.381Z,3.40
2023-06-16T00:04:00.974Z,3.85
2023-06-16T00:06:30.776Z,3.40
2023-06-16T00:08:59.391Z,3.15
2023-06-16T00:11:28.750Z,3.10
2023-06-16T00:13:57.238Z,3.03
2023-06-16T00:16:24.903Z,2.97
2023-06-16T00:18:54.777Z,3.37
2023-06-16T00:21:39.221Z,3.03
2023-06-16T00:24:07.475Z,3.12
2023-06-16T00:26:36.280Z,2.70
2023-06-16T00:29:04.579Z,3.33
2023-06-16T00:31:33.244Z,3.40
2023-06-16T00:34:01.001Z,3.33
2023-06-16T00:36:28.565Z,3.30
2023-06-16T00:38:57.029Z,3.25
2023-06-16T00:41:25.866Z,3.65
2023-06-16T00:43:54.488Z,3.67
2023-06-16T00:46:30.657Z,3.53
2023-06-16T00:48:58.337Z,3.55
2023-06-16T00:51:27.986Z,3.03
2023-06-16T00:53:56.044Z,3.35
2023-06-16T00:56:25.067Z,3.30
2023-06-16T00:58:54.499Z,3.30
2023-06-16T01:01:22.320Z,3.53
2023-06-16T01:03:52.824Z,3.67
2023-06-16T01:06:38.830Z,3.15
2023-06-16T01:09:23.036Z,4.00
2023-06-16T01:12:04.815Z,3.37
2023-06-16T01:14:54.585Z,3.67
2023-06-16T01:17:24.132Z,4.00
2023-06-16T01:20:00.735Z,3.47
2023-06-16T01:22:44.413Z,3.53
2023-06-16T01:25:15.285Z,3.50
2023-06-16T01:27:48.683Z,3.90
2023-06-16T01:30:17.718Z,4.07
2023-06-16T01:32:47.673Z,3.20
2023-06-16T01:35:16.310Z,3.37
2023-06-16T01:37:44.995Z,3.37
2023-06-16T01:40:14.072Z,3.50
2023-06-16T01:42:41.659Z,3.40
2023-06-16T01:45:09.601Z,3.60
2023-06-16T01:47:37.535Z,4.07
2023-06-16T01:50:05.590Z,3.47
2023-06-16T01:52:33.188Z,4.25
2023-06-16T01:55:00.912Z,3.33
2023-06-16T01:57:28.647Z,4.00
2023-06-16T02:00:10.301Z,3.60
2023-06-16T02:02:48.481Z,3.83
2023-06-16T02:05:18.213Z,3.42
2023-06-16T02:07:46.197Z,3.62
2023-06-16T02:10:14.338Z,3.85
2023-06-16T02:12:42.187Z,3.60
2023-06-16T02:15:09.960Z,4.22
2023-06-16T02:17:37.516Z,4.07
2023-06-16T02:20:08.494Z,4.10
2023-06-16T02:22:36.356Z,4.50
2023-06-16T02:25:04.503Z,4.15
2023-06-16T02:27:32.390Z,4.60
2023-06-16T02:30:00.153Z,4.60
2023-06-16T02:32:28.121Z,4.43
2023-06-16T02:34:57.409Z,4.47
2023-06-16T02:37:26.637Z,4.40
2023-06-16T02:39:55.686Z,4.35
2023-06-16T02:42:23.867Z,4.37
2023-06-16T02:44:51.323Z,4.43
2023-06-16T02:47:18.910Z,4.12
2023-06-16T02:49:47.323Z,4.10
2023-06-16T02:52:14.794Z,4.68
2023-06-16T02:54:42.680Z,4.37
2023-06-16T02:57:10.881Z,4.45
2023-06-16T02:59:42.905Z,4.32
2023-06-16T03:02:10.972Z,4.07
2023-06-16T03:04:38.585Z,4.50
2023-06-16T03:07:06.440Z,4.12
2023-06-16T03:09:34.463Z,4.53
2023-06-16T03:12:02.094Z,3.85
2023-06-16T03:14:30.788Z,4.40
2023-06-16T03:17:01.532Z,4.07
2023-06-16T03:19:29.385Z,4.75
2023-06-16T03:21:56.996Z,4.37
2023-06-16T03:24:26.292Z,4.55
2023-06-16T03:26:55.459Z,4.53
2023-06-16T03:29:24.682Z,4.22
2023-06-16T03:31:52.915Z,4.62
2023-06-16T03:34:25.132Z,4.07
2023-06-16T03:36:53.600Z,4.07
2023-06-16T03:39:21.725Z,4.80
2023-06-16T03:41:49.302Z,4.82
2023-06-16T03:44:17.148Z,4.40
2023-06-16T03:46:44.914Z,4.05
2023-06-16T03:49:13.364Z,4.20
2023-06-16T03:51:42.118Z,4.10
2023-06-16T03:54:10.541Z,4.15
2023-06-16T03:56:38.170Z,4.55
2023-06-16T03:59:07.066Z,4.75
2023-06-16T04:01:37.458Z,4.40
2023-06-16T04:04:09.452Z,4.18
2023-06-16T04:06:37.740Z,4.10
2023-06-16T04:09:06.464Z,4.30
2023-06-16T04:11:34.425Z,4.50
2023-06-16T04:14:02.115Z,4.50
2023-06-16T04:16:30.142Z,4.45
2023-06-16T04:18:57.904Z,4.28
2023-06-16T04:21:25.771Z,4.57
2023-06-16T04:23:53.578Z,4.03
2023-06-16T04:26:23.499Z,5.00
2023-06-16T04:28:54.638Z,4.70
2023-06-16T04:31:29.430Z,4.78
2023-06-16T04:33:59.280Z,4.87
2023-06-16T04:36:30.903Z,4.85
2023-06-16T04:39:00.841Z,4.80
2023-06-16T04:41:28.777Z,4.70
2023-06-16T04:43:56.951Z,4.60
2023-06-16T04:46:25.080Z,4.80
2023-06-16T04:48:52.971Z,4.62
2023-06-16T04:51:21.558Z,5.00
2023-06-16T04:53:49.442Z,4.85
2023-06-16T04:56:17.257Z,4.50
2023-06-16T04:58:45.597Z,4.70
2023-06-16T05:01:13.189Z,4.12
2023-06-16T05:03:41.060Z,4.57
2023-06-16T05:06:08.642Z,5.22
2023-06-16T05:08:36.070Z,4.53
2023-06-16T05:11:03.820Z,4.78
2023-06-16T05:13:31.604Z,4.45
2023-06-16T05:15:59.220Z,5.00
2023-06-16T05:18:27.091Z,4.75
2023-06-16T05:20:54.573Z,4.53
2023-06-16T05:23:22.170Z,4.70
2023-06-16T05:25:50.025Z,4.30
2023-06-16T05:28:18.681Z,4.00
2023-06-16T05:30:46.444Z,4.53
2023-06-16T05:33:14.635Z,4.72
2023-06-16T05:35:42.557Z,4.35
2023-06-16T05:38:11.551Z,4.50
2023-06-16T05:40:39.434Z,4.43
2023-06-16T05:43:06.940Z,4.85
2023-06-16T05:45:34.735Z,3.80
2023-06-16T05:48:02.567Z,4.62
2023-06-16T05:50:30.457Z,4.62
2023-06-16T05:52:57.947Z,4.68
2023-06-16T05:55:25.790Z,5.35
2023-06-16T05:57:54.067Z,4.97
2023-06-16T06:00:22.205Z,4.30
2023-06-16T06:02:50.899Z,5.20
2023-06-16T06:05:19.606Z,4.68
2023-06-16T06:07:47.070Z,4.80
2023-06-16T06:10:15.529Z,5.05
2023-06-16T06:12:43.082Z,5.43
2023-06-16T06:15:11.583Z,5.47
2023-06-16T06:17:40.789Z,5.60
2023-06-16T06:20:09.182Z,4.95
2023-06-16T06:22:36.670Z,5.45
2023-06-16T06:25:06.858Z,4.90
2023-06-16T06:27:34.349Z,5.10
2023-06-16T06:30:02.135Z,4.90
2023-06-16T06:32:31.140Z,5.40
2023-06-16T06:34:58.809Z,5.15
2023-06-16T06:37:31.714Z,5.37
2023-06-16T06:39:59.806Z,5.30
2023-06-16T06:42:28.239Z,5.07
2023-06-16T06:44:56.179Z,5.03
2023-06-16T06:47:23.938Z,5.80
2023-06-16T06:49:51.869Z,5.15
2023-06-16T06:52:19.353Z,5.22
2023-06-16T06:54:47.147Z,5.45
2023-06-16T06:57:15.187Z,5.07
2023-06-16T06:59:43.224Z,4.70
2023-06-16T07:02:11.853Z,5.60
2023-06-16T07:04:40.865Z,5.00
2023-06-16T07:07:09.251Z,4.85
2023-06-16T07:09:36.968Z,5.70
2023-06-16T07:12:04.684Z,4.95
2023-06-16T07:14:32.236Z,5.50
2023-06-16T07:17:01.202Z,5.75
2023-06-16T07:19:28.668Z,4.60
2023-06-16T07:21:57.899Z,5.43
2023-06-16T07:24:25.795Z,5.15
2023-06-16T07:26:53.325Z,5.47
2023-06-16T07:29:21.624Z,5.90
2023-06-16T07:31:49.429Z,5.18
2023-06-16T07:34:16.959Z,6.03
2023-06-16T07:36:44.716Z,5.28
2023-06-16T07:39:12.863Z,5.07
2023-06-16T07:41:40.376Z,5.43
2023-06-16T07:44:07.846Z,5.37
2023-06-16T07:46:35.831Z,4.90
2023-06-16T07:49:03.399Z,5.80
2023-06-16T07:51:31.029Z,5.65
2023-06-16T07:53:58.771Z,5.50
2023-06-16T07:56:26.228Z,5.85
2023-06-16T07:58:53.698Z,5.70
2023-06-16T08:01:21.755Z,5.40
2023-06-16T08:03:50.255Z,5.35
2023-06-16T08:06:18.253Z,5.80
2023-06-16T08:08:45.880Z,5.78
2023-06-16T08:11:13.676Z,5.60
2023-06-16T08:13:41.254Z,4.97
2023-06-16T08:16:08.834Z,5.03
2023-06-16T08:18:36.643Z,5.40
2023-06-16T08:21:08.059Z,4.93
2023-06-16T08:23:36.699Z,4.37
2023-06-16T08:26:06.130Z,4.37
2023-06-16T08:28:33.580Z,4.87
2023-06-16T08:31:01.579Z,4.20
2023-06-16T08:33:29.185Z,3.97
2023-06-16T08:35:57.018Z,3.85
2023-06-16T08:38:25.136Z,4.50
2023-06-16T08:40:52.670Z,3.80
2023-06-16T08:43:23.188Z,4.18
2023-06-16T08:45:51.664Z,4.40
2023-06-16T08:48:19.185Z,4.18
2023-06-16T08:50:47.294Z,3.92
2023-06-16T08:53:16.566Z,4.70
2023-06-16T08:55:44.586Z,4.45
2023-06-16T08:58:13.469Z,4.82
2023-06-16T09:00:41.899Z,5.20
2023-06-16T09:03:09.588Z,4.72
2023-06-16T09:05:37.781Z,4.85
2023-06-16T09:08:06.658Z,5.32
2023-06-16T09:10:35.460Z,4.80
2023-06-16T09:13:03.846Z,4.82
2023-06-16T09:15:35.054Z,4.53
2023-06-16T09:18:08.171Z,4.23
2023-06-16T09:20:38.972Z,4.60
2023-06-16T09:23:06.402Z,4.80
2023-06-16T09:25:34.589Z,4.30
2023-06-16T09:28:10.687Z,4.55
2023-06-16T09:30:40.639Z,4.90
2023-06-16T09:33:10.634Z,4.40
2023-06-16T09:35:41.397Z,4.47
2023-06-16T09:38:11.030Z,4.97
2023-06-16T09:40:39.896Z,5.00
2023-06-16T09:43:09.831Z,4.53
2023-06-16T09:45:37.464Z,4.57
2023-06-16T09:48:06.745Z,4.18
2023-06-16T09:50:34.812Z,4.40
2023-06-16T09:53:05.457Z,5.07
2023-06-16T09:55:37.492Z,5.03
2023-06-16T09:58:04.963Z,4.32
2023-06-16T10:00:34.158Z,4.47
2023-06-16T10:03:03.764Z,4.47
2023-06-16T10:05:35.951Z,4.85
2023-06-16T10:08:08.529Z,4.68
2023-06-16T10:10:39.460Z,4.43
2023-06-16T10:13:07.909Z,4.90
2023-06-16T10:15:40.871Z,4.97
2023-06-16T10:18:12.205Z,4.25
2023-06-16T10:23:08.989Z,4.30
2023-06-16T10:25:37.607Z,4.65
2023-06-16T10:28:09.231Z,4.95
2023-06-16T10:33:21.460Z,4.50
2023-06-16T10:36:11.567Z,3.95
2023-06-16T10:38:43.868Z,4.75
2023-06-16T10:41:16.560Z,4.28
2023-06-16T10:43:44.293Z,4.55
2023-06-16T10:46:18.991Z,5.22
2023-06-16T10:49:05.535Z,4.75
2023-06-16T10:51:49.018Z,4.75
2023-06-16T10:54:34.504Z,5.53
2023-06-16T10:57:13.964Z,5.03
2023-06-16T10:59:57.959Z,5.10
2023-06-16T11:02:28.102Z,4.90
2023-06-16T11:05:10.984Z,4.87
2023-06-16T11:07:47.387Z,5.35
2023-06-16T11:10:19.951Z,4.53
2023-06-16T11:12:48.443Z,4.85
2023-06-16T11:15:15.917Z,4.05
2023-06-16T11:17:45.148Z,4.07
2023-06-16T11:20:14.315Z,3.53
2023-06-16T11:22:44.054Z,3.80
2023-06-16T11:25:11.733Z,4.40
2023-06-16T11:27:39.802Z,4.50
2023-06-16T11:30:08.872Z,4.35
2023-06-16T11:32:38.493Z,4.47
2023-06-16T11:35:07.090Z,3.72
2023-06-16T11:37:40.366Z,4.65
2023-06-16T11:40:08.861Z,4.45
2023-06-16T11:42:36.573Z,4.22
2023-06-16T11:45:04.609Z,4.18
2023-06-16T11:47:32.565Z,4.65
2023-06-16T11:50:00.047Z,4.82
2023-06-16T11:52:28.429Z,4.93
2023-06-16T11:54:58.437Z,4.50
2023-06-16T11:57:25.955Z,4.22
2023-06-16T11:59:53.526Z,5.00
2023-06-16T12:02:21.682Z,4.60
2023-06-16T12:04:49.456Z,4.78
2023-06-16T12:07:16.955Z,5.32
2023-06-16T12:09:44.391Z,4.87
2023-06-16T12:12:15.153Z,4.55
2023-06-16T12:14:42.796Z,5.07
2023-06-16T12:17:10.801Z,4.97
2023-06-16T12:19:41.395Z,5.10
2023-06-16T12:22:10.081Z,4.90
2023-06-16T12:24:40.106Z,4.32
2023-06-16T12:27:07.715Z,4.90
2023-06-16T12:29:35.348Z,4.85
2023-06-16T12:32:06.541Z,4.53
2023-06-16T12:34:36.796Z,4.90
2023-06-16T12:37:07.986Z,4.85
2023-06-16T12:39:35.765Z,5.20
2023-06-16T12:42:03.183Z,4.85
2023-06-16T12:44:50.030Z,5.62
2023-06-16T12:47:22.845Z,4.90
2023-06-16T12:49:55.631Z,4.55
2023-06-16T12:52:24.268Z,4.65
2023-06-16T12:54:53.188Z,5.62
2023-06-16T12:57:24.611Z,6.15
2023-06-16T13:02:20.176Z,6.50
2023-06-16T13:04:48.231Z,6.25
2023-06-16T13:07:16.279Z,6.18
2023-06-16T13:09:43.806Z,5.78
2023-06-16T13:12:11.308Z,6.53
2023-06-16T13:14:39.068Z,6.12
2023-06-16T13:17:07.231Z,6.22
2023-06-16T13:19:34.669Z,5.72
2023-06-16T13:22:02.774Z,5.70
2023-06-16T13:24:31.043Z,5.62
2023-06-16T13:26:58.578Z,5.07
2023-06-16T13:29:27.973Z,5.15
2023-06-16T13:31:55.962Z,5.30
2023-06-16T13:34:23.376Z,5.28
2023-06-16T13:36:51.119Z,5.50
2023-06-16T13:39:18.576Z,5.22
2023-06-16T13:41:46.643Z,4.93
2023-06-16T13:44:14.571Z,4.93
2023-06-16T13:46:42.266Z,4.80
2023-06-16T13:49:12.837Z,4.80
2023-06-16T13:51:44.085Z,4.13
2023-06-16T13:54:12.134Z,4.32
2023-06-16T13:56:42.225Z,4.95
2023-06-16T13:59:10.077Z,4.62
2023-06-16T14:01:37.566Z,4.50
2023-06-16T14:04:05.255Z,4.75
2023-06-16T14:06:32.778Z,4.93
2023-06-16T14:09:00.400Z,4.45
2023-06-16T14:11:28.117Z,4.87
2023-06-16T14:13:55.589Z,4.43
2023-06-16T14:16:23.056Z,4.20
2023-06-16T14:18:53.236Z,4.50
2023-06-16T14:21:20.813Z,3.90
2023-06-16T14:23:49.564Z,4.57
2023-06-16T14:26:17.339Z,4.50
2023-06-16T14:28:44.869Z,4.65
2023-06-16T14:31:12.419Z,4.55
2023-06-16T14:33:40.179Z,4.20
2023-06-16T14:36:07.750Z,3.95
2023-06-16T14:38:35.222Z,4.10
2023-06-16T14:41:02.969Z,4.15
2023-06-16T14:43:30.393Z,3.72
2023-06-16T14:45:58.144Z,3.80
2023-06-16T14:48:25.940Z,3.60
2023-06-16T14:50:53.412Z,3.90
2023-06-16T14:53:21.193Z,3.78
2023-06-16T14:55:48.959Z,3.50
2023-06-16T14:58:16.543Z,3.72
2023-06-16T15:00:44.093Z,3.10
2023-06-16T15:03:11.929Z,3.10
2023-06-16T15:05:39.717Z,3.00
2023-06-16T15:08:07.208Z,2.87
2023-06-16T15:10:34.990Z,3.97
2023-06-16T15:13:02.621Z,3.47
2023-06-16T15:15:30.086Z,3.35
2023-06-16T15:17:57.969Z,2.67
2023-06-16T15:20:25.726Z,3.05
2023-06-16T15:22:53.127Z,3.25
2023-06-16T15:25:23.123Z,4.47
2023-06-16T15:27:59.749Z,3.50
2023-06-16T15:30:35.060Z,3.17
2023-06-16T15:33:02.615Z,3.35
2023-06-16T15:35:30.456Z,3.67
2023-06-16T15:37:58.240Z,3.45
2023-06-16T15:40:25.862Z,3.50
2023-06-16T15:43:01.815Z,2.80
2023-06-16T15:45:29.534Z,3.58
2023-06-16T15:47:57.550Z,3.15
2023-06-16T15:50:26.431Z,3.05
2023-06-16T15:52:54.190Z,3.10
2023-06-16T15:55:21.863Z,3.67
2023-06-16T15:57:49.624Z,3.22
2023-06-16T16:00:17.745Z,3.30
2023-06-16T16:02:46.098Z,3.08
2023-06-16T16:05:15.928Z,3.37
2023-06-16T16:07:43.650Z,2.85
2023-06-16T16:10:11.416Z,2.92
2023-06-16T16:12:40.059Z,2.83
2023-06-16T16:15:09.570Z,2.55
2023-06-16T16:17:38.343Z,2.62
2023-06-16T16:20:07.464Z,4.10
2023-06-16T16:22:34.925Z,2.83
2023-06-16T16:25:02.826Z,2.60
2023-06-16T16:27:30.696Z,3.10
2023-06-16T16:29:58.271Z,2.78
2023-06-16T16:32:27.584Z,2.60
2023-06-16T16:34:55.402Z,2.90
2023-06-16T16:37:23.187Z,3.00
2023-06-16T16:39:51.289Z,2.80
2023-06-16T16:42:18.884Z,3.33
2023-06-16T16:44:47.173Z,3.50
2023-06-16T16:47:16.042Z,3.08
2023-06-16T16:49:43.772Z,2.87
2023-06-16T16:52:12.036Z,2.97
2023-06-16T16:54:39.766Z,3.50
2023-06-16T16:57:07.403Z,2.70
2023-06-16T16:59:35.044Z,3.30
2023-06-16T17:02:03.012Z,3.03
2023-06-16T17:04:31.216Z,3.08
2023-06-16T17:06:58.759Z,3.00
2023-06-16T17:09:26.494Z,2.95
2023-06-16T17:11:56.310Z,2.87
2023-06-16T17:14:25.445Z,3.35
2023-06-16T17:16:53.316Z,3.20
2023-06-16T17:19:21.060Z,3.12
2023-06-16T17:21:48.776Z,3.22
2023-06-16T17:24:17.045Z,3.00
2023-06-16T17:26:46.269Z,2.83
2023-06-16T17:29:16.034Z,3.08
2023-06-16T17:31:45.576Z,3.40
2023-06-16T17:34:13.134Z,3.90
2023-06-16T17:36:40.894Z,3.35
2023-06-16T17:39:08.356Z,3.50
2023-06-16T17:41:35.875Z,3.72
2023-06-16T17:44:06.646Z,3.97
2023-06-16T17:46:36.328Z,3.45
2023-06-16T17:49:05.480Z,3.25
2023-06-16T17:51:32.924Z,3.53
2023-06-16T17:54:00.426Z,3.72
2023-06-16T17:56:33.100Z,3.58
2023-06-16T17:59:01.841Z,3.17
2023-06-16T18:01:29.916Z,3.20
2023-06-16T18:03:57.684Z,3.05
2023-06-16T18:06:25.198Z,3.25
2023-06-16T18:08:52.628Z,3.70
2023-06-16T18:11:20.526Z,3.83
2023-06-16T18:13:47.976Z,3.70
2023-06-16T18:16:15.561Z,3.37
2023-06-16T18:18:43.331Z,3.42
2023-06-16T18:21:10.803Z,3.72
2023-06-16T18:23:38.316Z,3.65
2023-06-16T18:26:06.034Z,4.12
2023-06-16T18:28:34.278Z,3.70
2023-06-16T18:31:02.006Z,3.72
2023-06-16T18:33:31.276Z,3.53
2023-06-16T18:35:58.721Z,3.53
2023-06-16T18:38:26.207Z,3.28
2023-06-16T18:40:53.922Z,3.33
2023-06-16T18:43:25.494Z,3.65
2023-06-16T18:45:54.957Z,3.53
2023-06-16T18:48:22.686Z,3.83
2023-06-16T18:50:50.202Z,3.37
2023-06-16T18:53:18.020Z,4.00
2023-06-16T18:55:49.385Z,3.47
2023-06-16T18:58:17.794Z,3.83
2023-06-16T19:00:45.749Z,3.37
2023-06-16T19:03:13.309Z,4.10
2023-06-16T19:05:42.625Z,3.87
2023-06-16T19:08:12.289Z,3.80
2023-06-16T19:10:39.971Z,4.80
2023-06-16T19:13:09.534Z,3.92
2023-06-16T19:15:38.302Z,3.95
2023-06-16T19:18:05.871Z,4.20
2023-06-16T19:20:33.354Z,3.55
2023-06-16T19:23:01.252Z,3.62
2023-06-16T19:25:29.392Z,3.97
2023-06-16T19:27:56.792Z,4.30
2023-06-16T19:30:24.600Z,4.05
2023-06-16T19:32:52.207Z,4.00
2023-06-16T19:35:20.579Z,4.00
2023-06-16T19:37:48.487Z,5.40
2023-06-16T19:40:15.942Z,4.15
2023-06-16T19:42:43.382Z,5.20
2023-06-16T19:45:11.207Z,5.25
2023-06-16T19:47:38.946Z,4.62
2023-06-16T19:50:07.147Z,5.18
2023-06-16T19:52:34.945Z,5.22
2023-06-16T19:55:02.523Z,5.10
2023-06-16T19:57:30.305Z,4.68
2023-06-16T19:59:58.076Z,4.03
2023-06-16T20:02:27.152Z,4.15
2023-06-16T20:04:55.668Z,4.22
2023-06-16T20:07:23.949Z,4.03
2023-06-16T20:09:51.788Z,4.47
2023-06-16T20:12:19.653Z,4.40
2023-06-16T20:14:47.504Z,4.60
2023-06-16T20:17:15.320Z,4.72
2023-06-16T20:19:45.569Z,5.25
2023-06-16T20:22:13.096Z,5.25
2023-06-16T20:24:40.636Z,4.97
2023-06-16T20:27:08.676Z,5.18
2023-06-16T20:29:36.130Z,4.75
2023-06-16T20:32:03.740Z,4.80
2023-06-16T20:34:31.438Z,5.28
2023-06-16T20:37:00.011Z,5.22
2023-06-16T20:39:27.487Z,5.07
2023-06-16T20:41:56.559Z,5.35
2023-06-16T20:44:24.027Z,5.72
2023-06-16T20:46:51.546Z,5.18
2023-06-16T20:49:20.174Z,6.07
2023-06-16T20:51:47.601Z,6.35
2023-06-16T20:54:15.029Z,5.78
2023-06-16T20:56:42.755Z,6.12
2023-06-16T20:59:10.345Z,6.45
2023-06-16T21:01:44.096Z,5.80
2023-06-16T21:04:12.880Z,5.95
2023-06-16T21:06:41.612Z,6.00
2023-06-16T21:09:11.641Z,6.78
2023-06-16T21:11:40.116Z,6.57
2023-06-16T21:14:08.058Z,6.87
2023-06-16T21:16:35.566Z,7.03
2023-06-16T21:19:03.923Z,6.35
2023-06-16T21:21:31.361Z,7.07
2023-06-16T21:24:01.366Z,6.30
2023-06-16T21:26:29.258Z,6.28
2023-06-16T21:28:56.707Z,6.68
2023-06-16T21:31:24.959Z,6.55
2023-06-16T21:33:52.657Z,6.45
2023-06-16T21:36:20.108Z,6.47
2023-06-16T21:38:54.630Z,6.68
2023-06-16T21:41:25.024Z,5.85
2023-06-16T21:43:52.615Z,6.53
2023-06-16T21:46:20.204Z,6.57
2023-06-16T21:48:50.077Z,6.87
2023-06-16T21:51:18.089Z,6.07
2023-06-16T21:53:45.540Z,6.35
2023-06-16T21:56:13.495Z,5.78
2023-06-16T21:58:41.063Z,6.18
2023-06-16T22:01:08.615Z,6.05
2023-06-16T22:03:36.348Z,5.93
2023-06-16T22:06:04.630Z,6.30
2023-06-16T22:08:32.155Z,6.68
2023-06-16T22:11:01.554Z,7.65
2023-06-16T22:13:30.020Z,8.10
2023-06-16T22:15:59.069Z,8.93
2023-06-16T22:18:26.842Z,8.93
2023-06-16T22:20:54.533Z,9.50
2023-06-16T22:23:22.017Z,10.25
2023-06-16T22:25:50.563Z,10.80
2023-06-16T22:28:18.099Z,10.65
2023-06-16T22:30:47.292Z,9.70
2023-06-16T22:33:15.145Z,9.80
2023-06-16T22:35:42.597Z,9.43
2023-06-16T22:38:10.144Z,9.95
2023-06-16T22:40:37.969Z,9.52
2023-06-16T22:43:05.465Z,8.70
2023-06-16T22:45:32.989Z,8.73
2023-06-16T22:48:02.272Z,8.77
2023-06-16T22:50:29.792Z,7.70
2023-06-16T22:52:58.332Z,7.60
2023-06-16T22:55:26.939Z,8.32
2023-06-16T22:57:54.368Z,7.40
2023-06-16T23:00:22.086Z,7.75
2023-06-16T23:02:50.301Z,8.27
2023-06-16T23:05:17.867Z,8.77
2023-06-16T23:07:46.314Z,8.20
2023-06-16T23:10:14.111Z,8.60
2023-06-16T23:12:41.676Z,8.25
2023-06-16T23:15:09.326Z,7.10
2023-06-16T23:17:37.130Z,7.82
2023-06-16T23:20:05.043Z,7.15
2023-06-16T23:22:34.058Z,7.03
2023-06-16T23:25:02.649Z,7.62
2023-06-16T23:27:30.160Z,6.72
2023-06-16T23:29:57.704Z,6.57
2023-06-16T23:32:25.740Z,6.37
2023-06-16T23:34:54.386Z,6.15
2023-06-16T23:37:22.521Z,5.37
2023-06-16T23:39:50.313Z,5.65
2023-06-16T23:42:18.019Z,5.45
2023-06-16T23:44:47.326Z,5.95
2023-06-16T23:47:15.177Z,5.87
2023-06-16T23:49:42.650Z,6.30
2023-06-16T23:52:10.089Z,5.95
2023-06-16T23:54:37.831Z,5.62
2023-06-16T23:57:05.742Z,5.70
2023-06-16T23:59:33.203Z,6.53
